Home   Weather   Sweden   Stockholm   Past weeks
Flag for Sweden

Past Weather in Stockholm, Sweden — December 2021

Currently: 30 °F. Overcast. (Weather station: Stockholm Bromma Airport, Sweden). See more current weather

December 2021 Weather in Stockholm — Graph

°F

High & Low Weather Summary for December 2021

 TemperatureHumidityPressure
High48 °F (Dec 18, 12:50 pm)100% (Dec 2, 3:20 am)30.39 "Hg (Dec 2, 3:20 am)
Low0 °F (Dec 7, 12:50 am)51% (Dec 20, 12:20 pm)29.18 "Hg (Dec 2, 1:20 am)
Average28 °F86%29.85 "Hg
* Reported Dec 1 12:20 am — Dec 31 11:50 pm, Stockholm. Weather by CustomWeather, © 2024

Note: Actual official high and low records may vary slightly from our data, if they occured in-between our weather recording intervals... More about our weather records

Stockholm Weather History for December 1, 2021

Scroll right to see more
 ConditionsComfort  
Time TempWeatherWind HumidityBarometerVisibility
12:20 am
Wed, Dec 1
14 °FPassing clouds.6 mph85%29.39 "HgN/A
12:50 am14 °FMostly cloudy.3 mph85%29.39 "HgN/A
1:20 am16 °FMostly cloudy.6 mph79%29.39 "HgN/A
1:50 am16 °FOvercast.3 mph79%29.39 "HgN/A
2:20 am16 °FMostly cloudy.3 mph79%29.39 "HgN/A
2:50 am14 °FMostly cloudy.No wind85%29.39 "HgN/A
3:20 am16 °FOvercast.2 mph86%29.39 "HgN/A
3:50 am16 °FMostly cloudy.3 mph86%29.39 "HgN/A
4:20 am18 °FOvercast.3 mph79%29.39 "HgN/A
4:50 am16 °FOvercast.2 mph86%29.39 "HgN/A
5:20 am16 °FMostly cloudy.5 mph86%29.39 "HgN/A
5:50 am18 °FMostly cloudy.5 mph86%29.39 "HgN/A
6:20 am18 °FPassing clouds.3 mph86%29.39 "HgN/A
6:50 am18 °FPassing clouds.3 mph86%29.39 "HgN/A
7:20 am16 °FPassing clouds.5 mph86%29.39 "HgN/A
7:50 am14 °FPassing clouds.3 mph85%29.39 "HgN/A
8:20 am14 °FSunny.3 mph92%29.39 "Hg10 mi
8:50 am16 °FSunny.5 mph86%29.42 "Hg10 mi
9:20 am16 °FSunny.3 mph86%29.39 "Hg10 mi
9:50 am16 °FSunny.2 mph86%29.42 "Hg10 mi
10:20 am18 °FSunny.3 mph86%29.39 "Hg10 mi
10:50 am18 °FPassing clouds.3 mph86%29.39 "HgN/A
11:20 am18 °FSunny.3 mph86%29.39 "Hg10 mi
11:50 am19 °FPassing clouds.3 mph79%29.39 "HgN/A
12:20 pm19 °FSunny.2 mph79%29.39 "Hg10 mi
12:50 pm19 °FSunny.3 mph79%29.39 "Hg10 mi
1:50 pm18 °FSunny.No wind86%29.36 "Hg10 mi
2:20 pm18 °FSunny.2 mph86%29.36 "Hg10 mi
2:50 pm18 °FSunny.3 mph86%29.36 "Hg10 mi
3:20 pm18 °FClear.3 mph86%29.36 "Hg10 mi
3:50 pm18 °FClear.3 mph86%29.33 "Hg10 mi
4:20 pm18 °FClear.1 mph86%29.33 "Hg10 mi
4:50 pm18 °FClear.3 mph86%29.33 "Hg10 mi
5:20 pm18 °FPassing clouds.3 mph86%29.30 "HgN/A
5:50 pm19 °FClear.3 mph79%29.30 "Hg10 mi
6:20 pm19 °FPassing clouds.3 mph86%29.30 "HgN/A
6:50 pm19 °FPassing clouds.3 mph86%29.30 "HgN/A
7:20 pm21 °FPassing clouds.3 mph80%29.27 "HgN/A
7:50 pm21 °FPassing clouds.No wind86%29.27 "HgN/A
8:20 pm21 °FPassing clouds.3 mph86%29.27 "HgN/A
9:20 pm23 °FPassing clouds.3 mph80%29.24 "HgN/A
9:50 pm23 °FPassing clouds.5 mph86%29.24 "HgN/A
10:20 pm25 °FOvercast.6 mph80%29.24 "HgN/A
10:50 pm25 °FLight snow. Passing clouds.6 mph86%29.21 "HgN/A
11:20 pm27 °FPassing clouds.8 mph80%29.21 "HgN/A
11:50 pm27 °FChilly.8 mph80%29.21 "HgN/A
Weather by CustomWeather, © 2024

See weather overview